sensor_id;sensor_type;location;lat;lon;timestamp;temperature;humidity
65876;HTU21D;52657;51.128;5.938;2024-03-02T08:54:12;18.19;41.84
65876;HTU21D;52657;51.128;5.938;2024-03-02T08:56:38;18.27;41.30
65876;HTU21D;52657;51.128;5.938;2024-03-02T08:59:06;18.50;41.15
65876;HTU21D;52657;51.128;5.938;2024-03-02T09:01:35;18.80;40.55
65876;HTU21D;52657;51.128;5.938;2024-03-02T09:04:03;18.83;39.05
65876;HTU21D;52657;51.128;5.938;2024-03-02T09:06:29;18.63;39.14
65876;HTU21D;52657;51.128;5.938;2024-03-02T09:08:54;18.56;39.49
65876;HTU21D;52657;51.128;5.938;2024-03-02T09:11:20;18.54;39.36
65876;HTU21D;52657;51.128;5.938;2024-03-02T09:13:46;18.52;39.61
65876;HTU21D;52657;51.128;5.938;2024-03-02T09:16:12;18.62;39.52
65876;HTU21D;52657;51.128;5.938;2024-03-02T09:18:43;18.88;39.38
65876;HTU21D;52657;51.128;5.938;2024-03-02T09:21:09;19.02;38.43
65876;HTU21D;52657;51.128;5.938;2024-03-02T09:23:35;18.88;38.11
65876;HTU21D;52657;51.128;5.938;2024-03-02T09:26:04;19.03;38.79
65876;HTU21D;52657;51.128;5.938;2024-03-02T09:28:30;19.32;37.99
65876;HTU21D;52657;51.128;5.938;2024-03-02T09:30:56;19.45;37.21
65876;HTU21D;52657;51.128;5.938;2024-03-02T09:33:24;19.52;36.25
65876;HTU21D;52657;51.128;5.938;2024-03-02T09:35:52;19.36;36.37
65876;HTU21D;52657;51.128;5.938;2024-03-02T09:38:20;19.23;36.32
65876;HTU21D;52657;51.128;5.938;2024-03-02T09:40:46;19.26;36.08
65876;HTU21D;52657;51.128;5.938;2024-03-02T09:43:12;19.26;36.32
65876;HTU21D;52657;51.128;5.938;2024-03-02T09:45:39;19.35;36.57
65876;HTU21D;52657;51.128;5.938;2024-03-02T09:48:05;19.56;36.91
65876;HTU21D;52657;51.128;5.938;2024-03-02T09:50:31;19.79;36.00
65876;HTU21D;52657;51.128;5.938;2024-03-02T09:52:59;19.90;35.56
65876;HTU21D;52657;51.128;5.938;2024-03-02T09:55:25;19.88;35.26
65876;HTU21D;52657;51.128;5.938;2024-03-02T09:57:51;19.96;35.36
65876;HTU21D;52657;51.128;5.938;2024-03-02T10:00:17;20.15;35.32
65876;HTU21D;52657;51.128;5.938;2024-03-02T10:02:44;20.25;34.16
65876;HTU21D;52657;51.128;5.938;2024-03-02T10:05:24;20.15;33.82
65876;HTU21D;52657;51.128;5.938;2024-03-02T10:08:01;20.02;34.16
65876;HTU21D;52657;51.128;5.938;2024-03-02T10:10:39;19.94;34.56
65876;HTU21D;52657;51.128;5.938;2024-03-02T10:13:14;19.97;33.92
65876;HTU21D;52657;51.128;5.938;2024-03-02T10:15:41;19.95;34.72
65876;HTU21D;52657;51.128;5.938;2024-03-02T10:18:11;20.13;34.84
65876;HTU21D;52657;51.128;5.938;2024-03-02T10:20:41;20.49;34.71
65876;HTU21D;52657;51.128;5.938;2024-03-02T10:23:13;20.80;34.57
65876;HTU21D;52657;51.128;5.938;2024-03-02T10:25:39;21.07;33.87
65876;HTU21D;52657;51.128;5.938;2024-03-02T10:28:05;21.24;32.77
65876;HTU21D;52657;51.128;5.938;2024-03-02T10:30:37;21.21;32.84
65876;HTU21D;52657;51.128;5.938;2024-03-02T10:33:06;21.28;32.80
65876;HTU21D;52657;51.128;5.938;2024-03-02T10:35:33;21.31;32.09
65876;HTU21D;52657;51.128;5.938;2024-03-02T10:38:04;20.83;31.91
65876;HTU21D;52657;51.128;5.938;2024-03-02T10:40:30;20.20;32.25
65876;HTU21D;52657;51.128;5.938;2024-03-02T10:42:56;19.61;33.21
65876;HTU21D;52657;51.128;5.938;2024-03-02T10:45:26;19.26;34.02
65876;HTU21D;52657;51.128;5.938;2024-03-02T10:47:52;18.91;34.83
65876;HTU21D;52657;51.128;5.938;2024-03-02T10:50:21;18.53;35.33
65876;HTU21D;52657;51.128;5.938;2024-03-02T10:52:47;18.29;36.47
65876;HTU21D;52657;51.128;5.938;2024-03-02T10:55:13;18.14;37.16
65876;HTU21D;52657;51.128;5.938;2024-03-02T10:57:53;17.95;37.25
65876;HTU21D;52657;51.128;5.938;2024-03-02T11:00:20;17.77;37.72
65876;HTU21D;52657;51.128;5.938;2024-03-02T11:02:56;17.66;37.62
65876;HTU21D;52657;51.128;5.938;2024-03-02T11:05:33;17.49;37.63
65876;HTU21D;52657;51.128;5.938;2024-03-02T11:08:08;17.36;38.73
65876;HTU21D;52657;51.128;5.938;2024-03-02T11:10:37;17.33;38.82
65876;HTU21D;52657;51.128;5.938;2024-03-02T11:13:12;17.36;39.43
65876;HTU21D;52657;51.128;5.938;2024-03-02T11:15:40;17.29;39.43
65876;HTU21D;52657;51.128;5.938;2024-03-02T11:18:13;17.19;39.68
65876;HTU21D;52657;51.128;5.938;2024-03-02T11:21:14;17.16;39.74
65876;HTU21D;52657;51.128;5.938;2024-03-02T11:23:40;17.11;39.34
65876;HTU21D;52657;51.128;5.938;2024-03-02T11:26:21;17.07;39.30
65876;HTU21D;52657;51.128;5.938;2024-03-02T11:28:51;17.03;38.62
65876;HTU21D;52657;51.128;5.938;2024-03-02T11:31:17;17.01;39.43
65876;HTU21D;52657;51.128;5.938;2024-03-02T11:33:45;17.01;39.17
65876;HTU21D;52657;51.128;5.938;2024-03-02T11:36:12;16.95;39.20
65876;HTU21D;52657;51.128;5.938;2024-03-02T11:38:38;16.91;39.13
65876;HTU21D;52657;51.128;5.938;2024-03-02T11:41:07;16.93;39.60
65876;HTU21D;52657;51.128;5.938;2024-03-02T11:43:37;17.00;39.58
65876;HTU21D;52657;51.128;5.938;2024-03-02T11:46:05;17.08;39.58
65876;HTU21D;52657;51.128;5.938;2024-03-02T11:48:39;17.19;39.30
65876;HTU21D;52657;51.128;5.938;2024-03-02T11:51:05;17.24;38.79
65876;HTU21D;52657;51.128;5.938;2024-03-02T11:53:31;17.24;38.84
65876;HTU21D;52657;51.128;5.938;2024-03-02T11:55:58;17.30;39.00
65876;HTU21D;52657;51.128;5.938;2024-03-02T11:58:24;17.31;38.57
65876;HTU21D;52657;51.128;5.938;2024-03-02T12:00:54;17.30;38.26
65876;HTU21D;52657;51.128;5.938;2024-03-02T12:03:23;17.25;38.28
65876;HTU21D;52657;51.128;5.938;2024-03-02T12:05:52;17.17;38.57
65876;HTU21D;52657;51.128;5.938;2024-03-02T12:08:24;17.13;38.83
65876;HTU21D;52657;51.128;5.938;2024-03-02T12:10:59;17.14;39.33
65876;HTU21D;52657;51.128;5.938;2024-03-02T12:13:26;17.20;39.26
65876;HTU21D;52657;51.128;5.938;2024-03-02T12:15:55;17.16;38.93
65876;HTU21D;52657;51.128;5.938;2024-03-02T12:18:22;17.16;39.46
65876;HTU21D;52657;51.128;5.938;2024-03-02T12:20:50;17.21;39.59
65876;HTU21D;52657;51.128;5.938;2024-03-02T12:23:22;17.28;39.27
65876;HTU21D;52657;51.128;5.938;2024-03-02T12:25:48;17.30;38.98
65876;HTU21D;52657;51.128;5.938;2024-03-02T12:28:14;17.24;38.87
65876;HTU21D;52657;51.128;5.938;2024-03-02T12:30:40;17.20;38.79
65876;HTU21D;52657;51.128;5.938;2024-03-02T12:33:06;17.21;39.30
65876;HTU21D;52657;51.128;5.938;2024-03-02T12:35:32;17.31;39.89
65876;HTU21D;52657;51.128;5.938;2024-03-02T12:37:58;17.35;39.35
65876;HTU21D;52657;51.128;5.938;2024-03-02T12:40:24;17.37;39.76
65876;HTU21D;52657;51.128;5.938;2024-03-02T12:42:50;17.40;39.60
65876;HTU21D;52657;51.128;5.938;2024-03-02T12:45:16;17.47;39.62
65876;HTU21D;52657;51.128;5.938;2024-03-02T12:47:52;17.53;39.59
65876;HTU21D;52657;51.128;5.938;2024-03-02T12:50:18;17.56;39.33
65876;HTU21D;52657;51.128;5.938;2024-03-02T12:52:53;17.51;39.38
65876;HTU21D;52657;51.128;5.938;2024-03-02T12:55:21;17.60;39.85
65876;HTU21D;52657;51.128;5.938;2024-03-02T12:57:50;17.74;39.24
65876;HTU21D;52657;51.128;5.938;2024-03-02T13:00:19;17.77;38.99
65876;HTU21D;52657;51.128;5.938;2024-03-02T13:02:46;17.81;39.49
65876;HTU21D;52657;51.128;5.938;2024-03-02T13:05:13;17.87;39.16
65876;HTU21D;52657;51.128;5.938;2024-03-02T13:07:39;17.89;39.01
65876;HTU21D;52657;51.128;5.938;2024-03-02T13:10:07;17.89;39.39
65876;HTU21D;52657;51.128;5.938;2024-03-02T13:12:36;17.92;38.73
65876;HTU21D;52657;51.128;5.938;2024-03-02T13:15:03;17.92;38.76
65876;HTU21D;52657;51.128;5.938;2024-03-02T13:17:29;17.90;38.54
65876;HTU21D;52657;51.128;5.938;2024-03-02T13:19:56;17.90;38.67
65876;HTU21D;52657;51.128;5.938;2024-03-02T13:22:26;17.94;38.95
65876;HTU21D;52657;51.128;5.938;2024-03-02T13:24:52;18.09;39.38
65876;HTU21D;52657;51.128;5.938;2024-03-02T13:27:23;18.15;38.95
65876;HTU21D;52657;51.128;5.938;2024-03-02T13:29:49;18.18;38.80
65876;HTU21D;52657;51.128;5.938;2024-03-02T13:32:16;18.23;39.07
65876;HTU21D;52657;51.128;5.938;2024-03-02T13:34:42;18.21;38.51
65876;HTU21D;52657;51.128;5.938;2024-03-02T13:37:09;18.15;38.75
65876;HTU21D;52657;51.128;5.938;2024-03-02T13:39:35;18.07;38.93
65876;HTU21D;52657;51.128;5.938;2024-03-02T13:42:10;17.99;39.42
65876;HTU21D;52657;51.128;5.938;2024-03-02T13:44:37;18.02;39.75
65876;HTU21D;52657;51.128;5.938;2024-03-02T13:47:04;17.99;40.10
65876;HTU21D;52657;51.128;5.938;2024-03-02T13:49:30;17.94;39.87
65876;HTU21D;52657;51.128;5.938;2024-03-02T13:52:00;17.92;40.09
65876;HTU21D;52657;51.128;5.938;2024-03-02T13:54:29;17.91;40.44
65876;HTU21D;52657;51.128;5.938;2024-03-02T13:56:56;17.88;40.33
65876;HTU21D;52657;51.128;5.938;2024-03-02T13:59:24;17.83;40.61
65876;HTU21D;52657;51.128;5.938;2024-03-02T14:01:51;17.79;40.73
65876;HTU21D;52657;51.128;5.938;2024-03-02T14:04:17;17.76;41.01
65876;HTU21D;52657;51.128;5.938;2024-03-02T14:06:44;17.77;41.01
65876;HTU21D;52657;51.128;5.938;2024-03-02T14:09:10;17.74;41.00
65876;HTU21D;52657;51.128;5.938;2024-03-02T14:11:36;17.76;41.26
65876;HTU21D;52657;51.128;5.938;2024-03-02T14:14:04;17.64;40.78
65876;HTU21D;52657;51.128;5.938;2024-03-02T14:16:30;17.52;40.81
65876;HTU21D;52657;51.128;5.938;2024-03-02T14:18:56;17.45;41.06
65876;HTU21D;52657;51.128;5.938;2024-03-02T14:21:22;17.40;41.21
65876;HTU21D;52657;51.128;5.938;2024-03-02T14:23:48;17.40;41.50
65876;HTU21D;52657;51.128;5.938;2024-03-02T14:26:14;17.44;41.54
65876;HTU21D;52657;51.128;5.938;2024-03-02T14:28:40;17.46;41.45
65876;HTU21D;52657;51.128;5.938;2024-03-02T14:31:06;17.45;41.25
65876;HTU21D;52657;51.128;5.938;2024-03-02T14:33:31;17.49;41.54
65876;HTU21D;52657;51.128;5.938;2024-03-02T14:35:57;17.48;41.21
65876;HTU21D;52657;51.128;5.938;2024-03-02T14:38:23;17.50;41.45
65876;HTU21D;52657;51.128;5.938;2024-03-02T14:40:52;17.58;41.70
65876;HTU21D;52657;51.128;5.938;2024-03-02T14:43:21;17.56;41.65
65876;HTU21D;52657;51.128;5.938;2024-03-02T14:45:50;17.55;41.54
65876;HTU21D;52657;51.128;5.938;2024-03-02T14:48:24;17.56;41.89
65876;HTU21D;52657;51.128;5.938;2024-03-02T14:50:57;17.62;42.35
65876;HTU21D;52657;51.128;5.938;2024-03-02T14:53:25;17.73;42.54
65876;HTU21D;52657;51.128;5.938;2024-03-02T14:55:51;17.83;42.39
65876;HTU21D;52657;51.128;5.938;2024-03-02T14:58:20;17.88;42.53
65876;HTU21D;52657;51.128;5.938;2024-03-02T15:00:46;17.91;42.42
65876;HTU21D;52657;51.128;5.938;2024-03-02T15:03:15;17.88;41.76
65876;HTU21D;52657;51.128;5.938;2024-03-02T15:05:41;17.77;41.76
65876;HTU21D;52657;51.128;5.938;2024-03-02T15:08:07;17.72;42.11
65876;HTU21D;52657;51.128;5.938;2024-03-02T15:10:33;17.70;42.22
65876;HTU21D;52657;51.128;5.938;2024-03-02T15:12:59;17.63;42.45
65876;HTU21D;52657;51.128;5.938;2024-03-02T15:15:25;17.62;42.68
65876;HTU21D;52657;51.128;5.938;2024-03-02T15:17:51;17.63;43.22
65876;HTU21D;52657;51.128;5.938;2024-03-02T15:20:21;17.64;43.55
65876;HTU21D;52657;51.128;5.938;2024-03-02T15:22:50;17.67;43.35
65876;HTU21D;52657;51.128;5.938;2024-03-02T15:25:21;17.66;43.38
65876;HTU21D;52657;51.128;5.938;2024-03-02T15:27:57;17.65;43.55
65876;HTU21D;52657;51.128;5.938;2024-03-02T15:30:25;17.65;43.92
65876;HTU21D;52657;51.128;5.938;2024-03-02T15:32:51;17.60;43.71
65876;HTU21D;52657;51.128;5.938;2024-03-02T15:35:21;17.51;44.22
65876;HTU21D;52657;51.128;5.938;2024-03-02T15:37:46;17.45;44.33
65876;HTU21D;52657;51.128;5.938;2024-03-02T15:40:20;17.37;44.70
65876;HTU21D;52657;51.128;5.938;2024-03-02T15:42:46;17.37;45.15
65876;HTU21D;52657;51.128;5.938;2024-03-02T15:45:12;17.38;45.21
65876;HTU21D;52657;51.128;5.938;2024-03-02T15:47:38;17.35;45.38
65876;HTU21D;52657;51.128;5.938;2024-03-02T15:50:04;17.33;45.54
65876;HTU21D;52657;51.128;5.938;2024-03-02T15:52:30;17.34;45.77
65876;HTU21D;52657;51.128;5.938;2024-03-02T15:54:56;17.31;45.77
65876;HTU21D;52657;51.128;5.938;2024-03-02T15:57:25;17.28;46.08
65876;HTU21D;52657;51.128;5.938;2024-03-02T15:59:51;17.23;46.33
65876;HTU21D;52657;51.128;5.938;2024-03-02T16:02:20;17.17;46.73
65876;HTU21D;52657;51.128;5.938;2024-03-02T16:04:49;17.11;47.13
65876;HTU21D;52657;51.128;5.938;2024-03-02T16:07:21;17.13;47.32
65876;HTU21D;52657;51.128;5.938;2024-03-02T16:09:46;17.10;47.04
65876;HTU21D;52657;51.128;5.938;2024-03-02T16:12:12;17.17;47.04
65876;HTU21D;52657;51.128;5.938;2024-03-02T16:14:38;17.16;47.12
65876;HTU21D;52657;51.128;5.938;2024-03-02T16:17:04;17.16;47.24
65876;HTU21D;52657;51.128;5.938;2024-03-02T16:19:32;17.18;47.31
65876;HTU21D;52657;51.128;5.938;2024-03-02T16:21:58;17.14;47.41
65876;HTU21D;52657;51.128;5.938;2024-03-02T16:24:24;17.16;47.51
65876;HTU21D;52657;51.128;5.938;2024-03-02T16:26:50;17.14;47.28
65876;HTU21D;52657;51.128;5.938;2024-03-02T16:29:19;17.15;47.38
65876;HTU21D;52657;51.128;5.938;2024-03-02T16:31:44;17.13;47.35
65876;HTU21D;52657;51.128;5.938;2024-03-02T16:34:10;17.08;47.27
65876;HTU21D;52657;51.128;5.938;2024-03-02T16:36:38;17.02;47.17
65876;HTU21D;52657;51.128;5.938;2024-03-02T16:39:05;16.91;47.15
65876;HTU21D;52657;51.128;5.938;2024-03-02T16:41:31;16.81;47.49
65876;HTU21D;52657;51.128;5.938;2024-03-02T16:44:03;16.76;47.57
65876;HTU21D;52657;51.128;5.938;2024-03-02T16:46:35;16.65;47.78
65876;HTU21D;52657;51.128;5.938;2024-03-02T16:49:02;16.59;48.23
65876;HTU21D;52657;51.128;5.938;2024-03-02T16:51:38;16.52;48.44
65876;HTU21D;52657;51.128;5.938;2024-03-02T16:54:14;16.47;48.65
65876;HTU21D;52657;51.128;5.938;2024-03-02T16:56:41;16.44;48.79
65876;HTU21D;52657;51.128;5.938;2024-03-02T16:59:08;16.40;48.85
65876;HTU21D;52657;51.128;5.938;2024-03-02T17:01:34;16.33;49.11
65876;HTU21D;52657;51.128;5.938;2024-03-02T17:04:00;16.30;49.29
65876;HTU21D;52657;51.128;5.938;2024-03-02T17:06:30;16.27;49.50
65876;HTU21D;52657;51.128;5.938;2024-03-02T17:09:01;16.21;49.73
65876;HTU21D;52657;51.128;5.938;2024-03-02T17:11:31;16.13;50.08
65876;HTU21D;52657;51.128;5.938;2024-03-02T17:14:04;16.07;50.46
65876;HTU21D;52657;51.128;5.938;2024-03-02T17:16:30;16.04;50.56
65876;HTU21D;52657;51.128;5.938;2024-03-02T17:18:56;15.99;50.72
65876;HTU21D;52657;51.128;5.938;2024-03-02T17:21:21;15.95;50.86
65876;HTU21D;52657;51.128;5.938;2024-03-02T17:23:51;15.88;50.81
65876;HTU21D;52657;51.128;5.938;2024-03-02T17:26:16;15.80;50.95
65876;HTU21D;52657;51.128;5.938;2024-03-02T17:28:43;15.76;50.95
65876;HTU21D;52657;51.128;5.938;2024-03-02T17:31:10;15.76;51.04
65876;HTU21D;52657;51.128;5.938;2024-03-02T17:33:36;15.75;50.92
65876;HTU21D;52657;51.128;5.938;2024-03-02T17:36:02;15.71;50.97
65876;HTU21D;52657;51.128;5.938;2024-03-02T17:38:29;15.70;51.02
65876;HTU21D;52657;51.128;5.938;2024-03-02T17:40:55;15.71;51.03
65876;HTU21D;52657;51.128;5.938;2024-03-02T17:43:24;15.70;51.06
65876;HTU21D;52657;51.128;5.938;2024-03-02T17:45:50;15.68;51.03
65876;HTU21D;52657;51.128;5.938;2024-03-02T17:48:16;15.69;51.15
65876;HTU21D;52657;51.128;5.938;2024-03-02T17:50:46;15.73;51.17
65876;HTU21D;52657;51.128;5.938;2024-03-02T17:53:12;15.74;51.13
65876;HTU21D;52657;51.128;5.938;2024-03-02T17:55:38;15.74;51.08
65876;HTU21D;52657;51.128;5.938;2024-03-02T17:58:04;15.73;51.14
65876;HTU21D;52657;51.128;5.938;2024-03-02T18:00:30;15.74;50.93
65876;HTU21D;52657;51.128;5.938;2024-03-02T18:02:55;15.75;50.83
65876;HTU21D;52657;51.128;5.938;2024-03-02T18:05:21;15.74;50.85
65876;HTU21D;52657;51.128;5.938;2024-03-02T18:07:47;15.73;50.96
65876;HTU21D;52657;51.128;5.938;2024-03-02T18:10:13;15.70;51.04
65876;HTU21D;52657;51.128;5.938;2024-03-02T18:12:38;15.66;51.12
65876;HTU21D;52657;51.128;5.938;2024-03-02T18:15:08;15.60;51.24
65876;HTU21D;52657;51.128;5.938;2024-03-02T18:17:35;15.56;51.34
65876;HTU21D;52657;51.128;5.938;2024-03-02T18:20:04;15.53;51.50
65876;HTU21D;52657;51.128;5.938;2024-03-02T18:22:30;15.53;51.47
65876;HTU21D;52657;51.128;5.938;2024-03-02T18:24:56;15.49;51.41
65876;HTU21D;52657;51.128;5.938;2024-03-02T18:27:23;15.51;51.27
65876;HTU21D;52657;51.128;5.938;2024-03-02T18:29:48;15.51;51.26
65876;HTU21D;52657;51.128;5.938;2024-03-02T18:32:14;15.48;51.21
65876;HTU21D;52657;51.128;5.938;2024-03-02T18:34:40;15.42;51.28
65876;HTU21D;52657;51.128;5.938;2024-03-02T18:37:06;15.39;51.37
65876;HTU21D;52657;51.128;5.938;2024-03-02T18:39:32;15.39;51.45
65876;HTU21D;52657;51.128;5.938;2024-03-02T18:41:59;15.33;51.41
65876;HTU21D;52657;51.128;5.938;2024-03-02T18:44:25;15.31;51.40
65876;HTU21D;52657;51.128;5.938;2024-03-02T18:46:51;15.29;51.39
65876;HTU21D;52657;51.128;5.938;2024-03-02T18:49:19;15.28;51.37
65876;HTU21D;52657;51.128;5.938;2024-03-02T18:51:45;15.25;51.42
65876;HTU21D;52657;51.128;5.938;2024-03-02T18:54:11;15.27;51.52
65876;HTU21D;52657;51.128;5.938;2024-03-02T18:56:38;15.25;51.47
65876;HTU21D;52657;51.128;5.938;2024-03-02T18:59:04;15.25;51.56
65876;HTU21D;52657;51.128;5.938;2024-03-02T19:01:30;15.22;51.64
65876;HTU21D;52657;51.128;5.938;2024-03-02T19:03:55;15.17;51.72
65876;HTU21D;52657;51.128;5.938;2024-03-02T19:06:21;15.14;51.85
65876;HTU21D;52657;51.128;5.938;2024-03-02T19:08:47;15.11;51.93
65876;HTU21D;52657;51.128;5.938;2024-03-02T19:11:16;15.07;52.03
65876;HTU21D;52657;51.128;5.938;2024-03-02T19:13:42;15.04;52.13
65876;HTU21D;52657;51.128;5.938;2024-03-02T19:16:13;15.00;52.24
65876;HTU21D;52657;51.128;5.938;2024-03-02T19:18:41;14.96;52.33
65876;HTU21D;52657;51.128;5.938;2024-03-02T19:21:07;14.94;52.39
65876;HTU21D;52657;51.128;5.938;2024-03-02T19:23:35;14.92;52.50
65876;HTU21D;52657;51.128;5.938;2024-03-02T19:26:04;14.86;52.69
65876;HTU21D;52657;51.128;5.938;2024-03-02T19:28:30;14.78;52.86
65876;HTU21D;52657;51.128;5.938;2024-03-02T19:30:55;14.75;53.01
65876;HTU21D;52657;51.128;5.938;2024-03-02T19:33:21;14.74;53.04
65876;HTU21D;52657;51.128;5.938;2024-03-02T19:35:51;14.78;53.06
65876;HTU21D;52657;51.128;5.938;2024-03-02T19:38:16;14.77;53.04
65876;HTU21D;52657;51.128;5.938;2024-03-02T19:40:42;14.77;53.03
65876;HTU21D;52657;51.128;5.938;2024-03-02T19:43:08;14.79;53.07
65876;HTU21D;52657;51.128;5.938;2024-03-02T19:45:34;14.78;53.11
65876;HTU21D;52657;51.128;5.938;2024-03-02T19:47:59;14.77;53.22
65876;HTU21D;52657;51.128;5.938;2024-03-02T19:50:25;14.75;53.33
65876;HTU21D;52657;51.128;5.938;2024-03-02T19:52:51;14.70;53.31
65876;HTU21D;52657;51.128;5.938;2024-03-02T19:55:20;14.67;53.42
65876;HTU21D;52657;51.128;5.938;2024-03-02T19:57:48;14.65;53.62
65876;HTU21D;52657;51.128;5.938;2024-03-02T20:00:15;14.65;53.72
65876;HTU21D;52657;51.128;5.938;2024-03-02T20:02:41;14.63;53.71
65876;HTU21D;52657;51.128;5.938;2024-03-02T20:05:08;14.59;53.78
65876;HTU21D;52657;51.128;5.938;2024-03-02T20:07:35;14.57;53.96
65876;HTU21D;52657;51.128;5.938;2024-03-02T20:10:06;14.56;54.00
65876;HTU21D;52657;51.128;5.938;2024-03-02T20:12:33;14.56;54.16
65876;HTU21D;52657;51.128;5.938;2024-03-02T20:14:58;14.56;54.21
65876;HTU21D;52657;51.128;5.938;2024-03-02T20:17:25;14.58;54.13
65876;HTU21D;52657;51.128;5.938;2024-03-02T20:19:51;14.56;54.09
65876;HTU21D;52657;51.128;5.938;2024-03-02T20:22:17;14.54;54.14
65876;HTU21D;52657;51.128;5.938;2024-03-02T20:24:44;14.50;54.24
65876;HTU21D;52657;51.128;5.938;2024-03-02T20:27:10;14.49;54.33
65876;HTU21D;52657;51.128;5.938;2024-03-02T20:29:36;14.47;54.43
65876;HTU21D;52657;51.128;5.938;2024-03-02T20:32:02;14.47;54.55
65876;HTU21D;52657;51.128;5.938;2024-03-02T20:34:29;14.43;54.49
65876;HTU21D;52657;51.128;5.938;2024-03-02T20:36:57;14.42;54.56
65876;HTU21D;52657;51.128;5.938;2024-03-02T20:39:26;14.44;54.60
65876;HTU21D;52657;51.128;5.938;2024-03-02T20:41:52;14.45;54.59
65876;HTU21D;52657;51.128;5.938;2024-03-02T20:44:22;14.44;54.66
65876;HTU21D;52657;51.128;5.938;2024-03-02T20:46:51;14.43;54.72
65876;HTU21D;52657;51.128;5.938;2024-03-02T20:49:18;14.43;54.75
65876;HTU21D;52657;51.128;5.938;2024-03-02T20:51:49;14.43;54.68
65876;HTU21D;52657;51.128;5.938;2024-03-02T20:54:21;14.41;54.67
65876;HTU21D;52657;51.128;5.938;2024-03-02T20:56:46;14.42;54.65
65876;HTU21D;52657;51.128;5.938;2024-03-02T20:59:12;14.40;54.69
65876;HTU21D;52657;51.128;5.938;2024-03-02T21:01:38;14.38;54.76
65876;HTU21D;52657;51.128;5.938;2024-03-02T21:04:04;14.36;54.90
65876;HTU21D;52657;51.128;5.938;2024-03-02T21:06:30;14.36;54.94
65876;HTU21D;52657;51.128;5.938;2024-03-02T21:08:55;14.35;54.95
65876;HTU21D;52657;51.128;5.938;2024-03-02T21:11:21;14.36;54.95
65876;HTU21D;52657;51.128;5.938;2024-03-02T21:13:50;14.38;54.95
65876;HTU21D;52657;51.128;5.938;2024-03-02T21:16:16;14.40;54.88
65876;HTU21D;52657;51.128;5.938;2024-03-02T21:18:43;14.45;54.77
65876;HTU21D;52657;51.128;5.938;2024-03-02T21:21:08;14.47;54.71
65876;HTU21D;52657;51.128;5.938;2024-03-02T21:23:38;14.51;54.68
65876;HTU21D;52657;51.128;5.938;2024-03-02T21:26:05;14.49;54.52
65876;HTU21D;52657;51.128;5.938;2024-03-02T21:28:30;14.50;54.50
65876;HTU21D;52657;51.128;5.938;2024-03-02T21:30:56;14.51;54.46
65876;HTU21D;52657;51.128;5.938;2024-03-02T21:33:31;14.50;54.42
65876;HTU21D;52657;51.128;5.938;2024-03-02T21:35:59;14.48;54.46
65876;HTU21D;52657;51.128;5.938;2024-03-02T21:38:25;14.47;54.43
65876;HTU21D;52657;51.128;5.938;2024-03-02T21:40:51;14.45;54.55
65876;HTU21D;52657;51.128;5.938;2024-03-02T21:43:16;14.48;54.65
65876;HTU21D;52657;51.128;5.938;2024-03-02T21:45:53;14.47;54.65
65876;HTU21D;52657;51.128;5.938;2024-03-02T21:48:19;14.45;54.65
65876;HTU21D;52657;51.128;5.938;2024-03-02T21:50:45;14.43;54.59
65876;HTU21D;52657;51.128;5.938;2024-03-02T21:53:10;14.40;54.65
65876;HTU21D;52657;51.128;5.938;2024-03-02T21:55:38;14.33;54.74
65876;HTU21D;52657;51.128;5.938;2024-03-02T21:58:04;14.29;54.90
65876;HTU21D;52657;51.128;5.938;2024-03-02T22:00:30;14.27;54.91
65876;HTU21D;52657;51.128;5.938;2024-03-02T22:02:55;14.26;54.93
65876;HTU21D;52657;51.128;5.938;2024-03-02T22:05:21;14.26;54.90
65876;HTU21D;52657;51.128;5.938;2024-03-02T22:07:54;14.24;54.85
65876;HTU21D;52657;51.128;5.938;2024-03-02T22:10:21;14.23;54.81
65876;HTU21D;52657;51.128;5.938;2024-03-02T22:12:47;14.22;54.72
65876;HTU21D;52657;51.128;5.938;2024-03-02T22:15:13;14.18;54.77
65876;HTU21D;52657;51.128;5.938;2024-03-02T22:17:38;14.14;54.89
65876;HTU21D;52657;51.128;5.938;2024-03-02T22:20:04;14.07;55.02
65876;HTU21D;52657;51.128;5.938;2024-03-02T22:22:30;14.01;55.20
65876;HTU21D;52657;51.128;5.938;2024-03-02T22:24:56;13.94;55.41
65876;HTU21D;52657;51.128;5.938;2024-03-02T22:27:24;13.89;55.58
65876;HTU21D;52657;51.128;5.938;2024-03-02T22:29:50;13.84;55.71
65876;HTU21D;52657;51.128;5.938;2024-03-02T22:32:16;13.81;55.87
65876;HTU21D;52657;51.128;5.938;2024-03-02T22:34:42;13.78;55.90
65876;HTU21D;52657;51.128;5.938;2024-03-02T22:37:07;13.75;56.00
65876;HTU21D;52657;51.128;5.938;2024-03-02T22:39:33;13.71;56.03
65876;HTU21D;52657;51.128;5.938;2024-03-02T22:41:59;13.67;56.13
65876;HTU21D;52657;51.128;5.938;2024-03-02T22:44:25;13.67;56.22
65876;HTU21D;52657;51.128;5.938;2024-03-02T22:46:51;13.69;56.20
65876;HTU21D;52657;51.128;5.938;2024-03-02T22:49:20;13.71;56.15
65876;HTU21D;52657;51.128;5.938;2024-03-02T22:51:46;13.74;56.06
65876;HTU21D;52657;51.128;5.938;2024-03-02T22:54:15;13.75;56.02
65876;HTU21D;52657;51.128;5.938;2024-03-02T22:56:40;13.78;55.90
65876;HTU21D;52657;51.128;5.938;2024-03-02T22:59:06;13.81;55.70
65876;HTU21D;52657;51.128;5.938;2024-03-02T23:01:32;13.84;55.56
65876;HTU21D;52657;51.128;5.938;2024-03-02T23:03:57;13.86;55.47
65876;HTU21D;52657;51.128;5.938;2024-03-02T23:06:23;13.88;55.49
65876;HTU21D;52657;51.128;5.938;2024-03-02T23:08:52;13.89;55.40
65876;HTU21D;52657;51.128;5.938;2024-03-02T23:11:21;13.82;55.36
65876;HTU21D;52657;51.128;5.938;2024-03-02T23:13:49;13.75;55.54
65876;HTU21D;52657;51.128;5.938;2024-03-02T23:16:15;13.67;55.69
65876;HTU21D;52657;51.128;5.938;2024-03-02T23:18:40;13.60;55.79
65876;HTU21D;52657;51.128;5.938;2024-03-02T23:21:06;13.58;55.84
65876;HTU21D;52657;51.128;5.938;2024-03-02T23:23:32;13.58;55.85
65876;HTU21D;52657;51.128;5.938;2024-03-02T23:25:58;13.54;55.84
65876;HTU21D;52657;51.128;5.938;2024-03-02T23:28:23;13.53;55.88
65876;HTU21D;52657;51.128;5.938;2024-03-02T23:30:49;13.51;55.94
65876;HTU21D;52657;51.128;5.938;2024-03-02T23:33:15;13.52;55.92
65876;HTU21D;52657;51.128;5.938;2024-03-02T23:35:41;13.55;55.81
65876;HTU21D;52657;51.128;5.938;2024-03-02T23:38:06;13.58;55.74
65876;HTU21D;52657;51.128;5.938;2024-03-02T23:40:32;13.56;55.81
65876;HTU21D;52657;51.128;5.938;2024-03-02T23:43:20;13.58;55.76
65876;HTU21D;52657;51.128;5.938;2024-03-02T23:45:49;13.59;55.78
65876;HTU21D;52657;51.128;5.938;2024-03-02T23:48:20;13.60;55.81
65876;HTU21D;52657;51.128;5.938;2024-03-02T23:50:46;13.59;55.84
65876;HTU21D;52657;51.128;5.938;2024-03-02T23:53:12;13.62;55.91
65876;HTU21D;52657;51.128;5.938;2024-03-02T23:55:38;13.63;55.96
65876;HTU21D;52657;51.128;5.938;2024-03-02T23:58:04;13.67;55.99
